Etusivu
METAR-TAF:

METAR-TAF

Lentoasemat :

Kairon kansainvälinen lentoasema

Kairo, Egypti

Leveyspiiri: 30-08N, Pituuspiiri: 031-24E, korkeus merenpinnasta: 64 m

Tämänhetkinen sää

Tämä raportti tehtiin 21 minuuttia sitten, kello 04.30 UTC
Tuuli 2 kn idästä
Lämpötila 15°C
Kosteus 41%
Ilmanpaine 1016 hPa
Näkyvyys: 6000 m

METAR: HECA 220430Z 10002KT 6000 NSC 15/02 Q1016 NOSIG

Aika: 06:51 (04:51 UTC)

Sääennuste

Tämä raportti tehtiin 5 tuntia ja 51 minuuttia sitten, kello 23.00 UTC
Ennuste voimassa 22. päivästä klo 00 UTC - 23. päivään klo 06 UTC
Tuuli 3 kn eri suunnista
Näkyvyys: 6000 m
Muutamia pilviä 2500 ft:n korkeudessa
Ajoittain
22. päivästä klo 00 UTC - 22. päivään klo 10 UTC
Näkyvyys: 4000 m
usvaa
Todennäköisyys 40%
22. päivästä klo 00 UTC - 22. päivään klo 08 UTC
Näkyvyys: 2000 m

TAF: HECA 212300Z 2200/2306 VRB03KT 6000 FEW025 TEMPO 2200/2210 4000 HZ PROB40 2200/2208 2000

Säähavainnot ja -ennusteet yli 4000 lentoasemalta (METAR- ja TAF-raportit).

Käytössä olevat sääasemat on merkitty karttaan keltaisilla ja punaisilla pisteillä.

Aseta hiiri pisteen päälle nähdäksesi sääaseman nimen.

Klikkaa sitten nähdäksesi säähavainnot ja -ennusteet.

Kartan vaihtaminen: klikkaa mustalla rastilla varustettuja vihreitä pisteitä, niin voit zoomata sisään; viivalla varustettua vihreää pistettä, niin voit zoomata ulos tai vihreitä nuolia, niin pääset viereisille kartoille.


METAR-TAF: